Time;durP1;ratioP1;P1;durP2;ratioP2;P2;SDS_P1;SDS_P2;PMS_P1;PMS_P2;Temp;Humidity;BMP_temperature;BMP_pressure;BME280_temperature;BME280_humidity;BME280_pressure;Samples;Min_cycle;Max_cycle;Signal;HPM_P1;HPM_P2
2023/08/07 00:01:34;;;;;;;;;;;;;;;27.69;41.31;94389.88;5009550;28;8890;-86
2023/08/07 00:04:00;;;;;;;;;;;;;;;27.69;41.83;94382.31;5009512;28;8896;-86
2023/08/07 00:06:26;;;;;;;;;;;;;;;27.73;41.11;94390.31;5009021;28;9053;-86
2023/08/07 00:08:52;;;;;;;;;;;;;;;27.73;41.87;94390.31;5024862;28;8590;-86
2023/08/07 00:11:19;;;;;;;;;;;;;;;27.66;41.91;94379.88;5005803;28;9016;-86
2023/08/07 00:13:45;;;;;;;;;;;;;;;27.72;41.15;94377.75;5020699;28;8805;-86
2023/08/07 00:16:12;;;;;;;;;;;;;;;27.73;41.67;94373.75;5023562;28;9089;-86
2023/08/07 00:18:40;;;;;;;;;;;;;;;27.66;41.51;94371.56;5005549;28;6860;-86
2023/08/07 00:21:06;;;;;;;;;;;;;;;27.69;41.47;94378.81;5004259;28;6997;-86
2023/08/07 00:23:32;;;;;;;;;;;;;;;27.70;41.30;94386.59;5025303;28;9078;-86
2023/08/07 00:25:58;;;;;;;;;;;;;;;27.70;41.34;94383.06;5009472;28;9196;-86
2023/08/07 00:28:29;;;;;;;;;;;;;;;27.70;41.57;94385.84;5017085;28;6980;-86
2023/08/07 00:30:56;;;;;;;;;;;;;;;27.70;41.19;94388.59;5006484;28;7029;-86
2023/08/07 00:33:22;;;;;;;;;;;;;;;27.67;41.27;94384.84;5010977;28;7024;-86
2023/08/07 00:35:51;;;;;;;;;;;;;;;27.68;41.35;94380.84;5020906;28;7041;-86
2023/08/07 00:38:17;;;;;;;;;;;;;;;27.65;41.33;94376.34;5007216;28;9050;-86
2023/08/07 00:40:43;;;;;;;;;;;;;;;27.69;41.46;94382.31;5012021;28;7283;-86
2023/08/07 00:43:09;;;;;;;;;;;;;;;27.66;41.32;94386.16;5008755;28;9013;-86
2023/08/07 00:45:44;;;;;;;;;;;;;;;27.68;41.67;94380.84;5026649;28;8937;-86
2023/08/07 00:48:12;;;;;;;;;;;;;;;27.64;41.31;94389.41;5006514;28;9029;-86
2023/08/07 00:50:41;;;;;;;;;;;;;;;27.68;41.55;94396.66;5007173;28;8682;-86
2023/08/07 00:53:09;;;;;;;;;;;;;;;27.67;41.60;94387.63;5021709;28;7029;-86
2023/08/07 00:55:36;;;;;;;;;;;;;;;27.60;41.75;94377.16;5020637;28;8906;-86
2023/08/07 00:58:02;;;;;;;;;;;;;;;27.68;41.54;94391.13;5007222;28;9008;-86
2023/08/07 01:00:32;;;;;;;;;;;;;;;27.63;41.48;94378.91;5024030;28;7031;-86
2023/08/07 01:02:59;;;;;;;;;;;;;;;27.59;41.47;94362.63;5012108;28;6930;-86
2023/08/07 01:05:28;;;;;;;;;;;;;;;27.61;41.49;94373.91;5019241;28;8600;-86
2023/08/07 01:08:03;;;;;;;;;;;;;;;27.63;41.32;94371.34;5023512;28;6877;-86
2023/08/07 01:11:04;;;;;;;;;;;;;;;27.60;41.33;94363.34;5023816;28;7021;-86
2023/08/07 01:13:45;;;;;;;;;;;;;;;27.63;41.42;94376.88;5023839;28;7320;-86
2023/08/07 01:16:28;;;;;;;;;;;;;;;27.60;41.50;94369.63;5019208;28;6957;-86
2023/08/07 01:19:00;;;;;;;;;;;;;;;27.57;41.43;94359.66;5017150;28;8607;-86
2023/08/07 01:21:28;;;;;;;;;;;;;;;27.61;41.62;94373.16;5019941;28;9011;-86
2023/08/07 01:23:54;;;;;;;;;;;;;;;27.59;41.85;94370.91;5022592;28;7328;-86
2023/08/07 01:26:22;;;;;;;;;;;;;;;27.60;41.12;94375.16;5022919;28;8763;-86
2023/08/07 01:29:12;;;;;;;;;;;;;;;27.62;40.93;94364.31;5015387;28;9275;-86
2023/08/07 01:31:44;;;;;;;;;;;;;;;27.62;41.57;94371.88;5020841;28;7274;-86
2023/08/07 01:34:20;;;;;;;;;;;;;;;27.60;41.66;94377.16;5020073;28;8735;-86
2023/08/07 01:36:49;;;;;;;;;;;;;;;27.58;41.67;94380.47;5006457;28;8735;-87
2023/08/07 01:39:21;;;;;;;;;;;;;;;27.59;41.42;94379.22;5009816;28;8767;-86
2023/08/07 01:41:48;;;;;;;;;;;;;;;27.60;41.30;94372.41;5019463;28;8712;-86
2023/08/07 01:44:16;;;;;;;;;;;;;;;27.59;41.26;94384.72;5018113;28;9003;-86
2023/08/07 01:46:42;;;;;;;;;;;;;;;27.60;41.47;94382.69;5025825;28;7256;-86
2023/08/07 01:49:08;;;;;;;;;;;;;;;27.57;41.47;94384.50;5003137;28;8686;-86
2023/08/07 01:51:36;;;;;;;;;;;;;;;27.57;41.44;94381.75;5016599;28;7338;-86
2023/08/07 01:54:02;;;;;;;;;;;;;;;27.55;41.44;94380.78;5006556;28;7238;-86
2023/08/07 01:56:28;;;;;;;;;;;;;;;27.51;41.55;94372.78;5014272;28;9001;-86
2023/08/07 01:58:56;;;;;;;;;;;;;;;27.57;41.34;94390.03;5009708;28;9054;-86
2023/08/07 02:01:22;;;;;;;;;;;;;;;27.55;41.76;94383.53;5021320;28;7235;-86
2023/08/07 02:03:48;;;;;;;;;;;;;;;27.51;41.45;94372.03;5015647;28;7042;-86
2023/08/07 02:06:15;;;;;;;;;;;;;;;27.53;41.07;94380.56;5022225;28;9033;-86
2023/08/07 02:08:41;;;;;;;;;;;;;;;27.56;41.74;94391.28;5002795;28;9161;-86
2023/08/07 02:11:07;;;;;;;;;;;;;;;27.53;41.36;94384.03;5020202;28;8639;-86
2023/08/07 02:13:33;;;;;;;;;;;;;;;27.52;41.20;94390.84;5000932;28;8995;-86
2023/08/07 02:16:00;;;;;;;;;;;;;;;27.55;41.43;94395.34;5008249;28;9159;-87
2023/08/07 02:18:29;;;;;;;;;;;;;;;27.56;41.39;94402.34;5021766;28;7034;-87
2023/08/07 02:20:57;;;;;;;;;;;;;;;27.55;41.19;94400.13;5017211;28;7368;-87
2023/08/07 02:23:23;;;;;;;;;;;;;;;27.52;41.29;94398.38;5014500;28;7244;-86
2023/08/07 02:25:49;;;;;;;;;;;;;;;27.53;41.49;94408.91;5000915;28;8723;-87
2023/08/07 02:28:21;;;;;;;;;;;;;;;27.51;41.87;94407.97;5018279;28;7271;-86
2023/08/07 02:30:53;;;;;;;;;;;;;;;27.51;42.11;94403.16;5001082;28;8766;-86
2023/08/07 02:33:20;;;;;;;;;;;;;;;27.54;41.42;94409.66;5005823;28;7180;-86
2023/08/07 02:35:46;;;;;;;;;;;;;;;27.47;41.32;94399.97;5005321;28;9335;-86
2023/08/07 02:38:12;;;;;;;;;;;;;;;27.53;41.17;94406.16;5018433;28;6983;-86
2023/08/07 02:40:38;;;;;;;;;;;;;;;27.51;41.42;94397.63;5022789;28;9064;-86
2023/08/07 02:43:04;;;;;;;;;;;;;;;27.47;41.32;94399.97;5005072;28;8733;-86
2023/08/07 02:45:30;;;;;;;;;;;;;;;27.49;41.54;94408.47;5022517;28;7253;-86
2023/08/07 02:47:57;;;;;;;;;;;;;;;27.45;41.58;94396.97;5023492;28;7483;-86
2023/08/07 02:50:27;;;;;;;;;;;;;;;27.51;41.52;94416.25;5002993;28;9294;-86
2023/08/07 02:52:53;;;;;;;;;;;;;;;27.45;41.54;94410.03;4994239;28;8603;-86
2023/08/07 02:55:21;;;;;;;;;;;;;;;27.42;41.39;94406.31;5019660;28;9309;-86
2023/08/07 02:57:47;;;;;;;;;;;;;;;27.49;41.72;94408.47;5006368;28;9188;-86
2023/08/07 03:00:14;;;;;;;;;;;;;;;27.45;41.65;94410.03;5025585;28;8930;-86
2023/08/07 03:02:41;;;;;;;;;;;;;;;27.48;41.55;94415.28;5004442;28;9021;-86
2023/08/07 03:05:08;;;;;;;;;;;;;;;27.45;41.52;94405.25;5023471;28;7062;-86
2023/08/07 03:07:34;;;;;;;;;;;;;;;27.45;41.20;94407.28;5023984;28;8777;-86
2023/08/07 03:10:00;;;;;;;;;;;;;;;27.45;41.26;94408.03;5002501;28;8767;-86
2023/08/07 03:12:27;;;;;;;;;;;;;;;27.42;41.41;94406.31;5003375;28;9295;-86
2023/08/07 03:14:53;;;;;;;;;;;;;;;27.45;41.48;94410.78;5000218;28;7753;-86
2023/08/07 03:17:20;;;;;;;;;;;;;;;27.44;41.36;94409.31;5021287;28;7316;-86
2023/08/07 03:19:49;;;;;;;;;;;;;;;27.49;41.33;94418.78;5007722;28;9108;-86
2023/08/07 03:22:15;;;;;;;;;;;;;;;27.45;41.63;94412.78;5019640;28;9045;-86
2023/08/07 03:24:46;;;;;;;;;;;;;;;27.41;41.58;94415.09;5022522;28;9047;-86
2023/08/07 03:27:14;;;;;;;;;;;;;;;27.41;41.15;94415.88;5009220;28;8399;-86
2023/08/07 03:29:46;;;;;;;;;;;;;;;27.47;42.00;94430.34;5004676;28;6897;-86
2023/08/07 03:32:18;;;;;;;;;;;;;;;27.40;41.42;94422.69;5006372;28;9105;-86
2023/08/07 03:34:45;;;;;;;;;;;;;;;27.39;41.55;94423.19;5009889;28;9088;-86
2023/08/07 03:37:11;;;;;;;;;;;;;;;27.46;41.70;94430.88;5006933;28;9764;-86
2023/08/07 03:39:38;;;;;;;;;;;;;;;27.45;41.56;94435.66;5020587;28;8990;-86
2023/08/07 03:42:04;;;;;;;;;;;;;;;27.42;41.21;94420.13;5016665;28;8637;-86
2023/08/07 03:44:35;;;;;;;;;;;;;;;27.44;41.11;94423.13;5010165;28;9054;-86
2023/08/07 03:47:04;;;;;;;;;;;;;;;27.43;41.45;94418.09;5021640;28;7021;-86
2023/08/07 03:49:30;;;;;;;;;;;;;;;27.36;41.13;94408.38;5021402;28;8595;-86
2023/08/07 03:51:56;;;;;;;;;;;;;;;27.44;41.26;94425.13;5021941;28;9085;-86
2023/08/07 03:54:22;;;;;;;;;;;;;;;27.41;41.57;94426.91;5025744;28;6988;-86
2023/08/07 03:56:49;;;;;;;;;;;;;;;27.43;41.88;94421.59;5021509;28;9031;-86
2023/08/07 03:59:15;;;;;;;;;;;;;;;27.41;41.50;94424.16;5007930;28;7161;-86
2023/08/07 04:01:44;;;;;;;;;;;;;;;27.35;41.44;94417.97;5027099;28;9178;-86
2023/08/07 04:04:12;;;;;;;;;;;;;;;27.36;41.33;94413.91;5017991;28;9209;-86
2023/08/07 04:06:38;;;;;;;;;;;;;;;27.37;41.34;94415.41;5006232;28;9193;-86
2023/08/07 04:09:04;;;;;;;;;;;;;;;27.35;41.58;94417.97;5022779;28;7105;-86
2023/08/07 04:11:33;;;;;;;;;;;;;;;27.40;41.47;94430.97;5023739;28;9003;-86
2023/08/07 04:14:00;;;;;;;;;;;;;;;27.33;41.68;94414.94;5020256;28;8435;-87
2023/08/07 04:16:26;;;;;;;;;;;;;;;27.39;41.20;94434.97;5021661;28;9099;-87
2023/08/07 04:18:52;;;;;;;;;;;;;;;27.33;41.51;94420.47;5004305;28;8823;-86
2023/08/07 04:21:18;;;;;;;;;;;;;;;27.37;41.80;94429.22;5025209;28;9656;-86
2023/08/07 04:23:45;;;;;;;;;;;;;;;27.35;41.05;94422.69;5023812;28;8874;-85
2023/08/07 04:26:11;;;;;;;;;;;;;;;27.38;41.69;94427.22;5008950;28;9116;-86
2023/08/07 04:28:37;;;;;;;;;;;;;;;27.37;41.64;94434.75;5005536;28;8661;-86
2023/08/07 04:31:03;;;;;;;;;;;;;;;27.34;41.75;94429.50;5020939;28;8697;-86
2023/08/07 04:33:30;;;;;;;;;;;;;;;27.31;41.42;94427.78;5018825;28;7366;-86
2023/08/07 04:35:58;;;;;;;;;;;;;;;27.38;41.88;94438.28;5016249;28;8697;-86
2023/08/07 04:38:25;;;;;;;;;;;;;;;27.37;41.06;94445.06;4997769;28;8766;-87
2023/08/07 04:40:55;;;;;;;;;;;;;;;27.39;41.09;94450.78;5006634;28;9040;-87
2023/08/07 04:43:23;;;;;;;;;;;;;;;27.36;41.45;94451.84;5004409;28;7268;-86
2023/08/07 04:45:49;;;;;;;;;;;;;;;27.36;41.68;94463.63;5009513;28;8773;-86
2023/08/07 04:48:17;;;;;;;;;;;;;;;27.31;41.48;94442.34;5002320;28;6990;-87
2023/08/07 04:50:44;;;;;;;;;;;;;;;27.29;41.07;94447.63;5023149;28;8727;-87
2023/08/07 04:53:10;;;;;;;;;;;;;;;27.36;41.48;94452.59;5026583;28;8670;-87
2023/08/07 04:55:36;;;;;;;;;;;;;;;27.36;41.72;94460.13;5021018;28;8978;-87
2023/08/07 04:58:05;;;;;;;;;;;;;;;27.34;41.92;94460.63;5017223;28;8721;-86
2023/08/07 05:00:31;;;;;;;;;;;;;;;27.30;41.37;94454.63;5008071;28;8605;-87
2023/08/07 05:03:01;;;;;;;;;;;;;;;27.30;41.57;94453.88;5004135;28;8919;-87
2023/08/07 05:05:29;;;;;;;;;;;;;;;27.34;41.41;94455.09;5022278;28;9272;-87
2023/08/07 05:07:55;;;;;;;;;;;;;;;27.32;41.68;94452.09;5017314;28;8587;-87
2023/08/07 05:10:21;;;;;;;;;;;;;;;27.30;41.13;94451.13;5023881;28;8637;-87
2023/08/07 05:12:48;;;;;;;;;;;;;;;27.33;41.03;94458.38;5006744;28;7191;-87
2023/08/07 05:15:14;;;;;;;;;;;;;;;27.32;41.33;94451.34;5018386;28;9826;-87
2023/08/07 05:17:40;;;;;;;;;;;;;;;27.30;41.54;94451.13;5016213;28;7005;-87
2023/08/07 05:20:08;;;;;;;;;;;;;;;27.26;41.10;94448.66;5022677;28;8587;-86
2023/08/07 05:22:34;;;;;;;;;;;;;;;27.27;41.77;94441.91;5021221;28;6872;-86
2023/08/07 05:25:03;;;;;;;;;;;;;;;27.34;41.16;94448.84;5011158;28;9096;-86
2023/08/07 05:27:29;;;;;;;;;;;;;;;27.26;41.72;94443.16;5018401;28;7032;-87
2023/08/07 05:29:57;;;;;;;;;;;;;;;27.33;41.48;94453.63;5002962;28;6881;-86
2023/08/07 05:32:23;;;;;;;;;;;;;;;27.30;41.35;94457.41;5006610;28;7036;-86
2023/08/07 05:34:51;;;;;;;;;;;;;;;27.33;41.04;94466.66;5005038;28;8788;-87
2023/08/07 05:37:18;;;;;;;;;;;;;;;27.33;41.55;94461.91;5019336;28;9112;-86
2023/08/07 05:39:44;;;;;;;;;;;;;;;27.26;41.16;94459.72;5022199;28;8729;-87
2023/08/07 05:42:12;;;;;;;;;;;;;;;27.31;41.26;94466.44;5018841;28;8560;-87
2023/08/07 05:44:38;;;;;;;;;;;;;;;27.28;41.39;94464.72;5020691;28;9056;-87
2023/08/07 05:47:07;;;;;;;;;;;;;;;27.34;41.27;94470.94;5020271;28;8732;-87
2023/08/07 05:49:34;;;;;;;;;;;;;;;27.35;41.21;94469.66;5021005;28;8714;-87
2023/08/07 05:52:00;;;;;;;;;;;;;;;27.31;40.87;94467.19;5020594;28;9606;-86
2023/08/07 05:54:28;;;;;;;;;;;;;;;27.35;41.36;94467.69;5021295;28;8346;-87
2023/08/07 05:56:55;;;;;;;;;;;;;;;27.31;41.07;94466.44;5007361;28;9337;-85
2023/08/07 05:59:22;;;;;;;;;;;;;;;27.37;41.22;94470.66;5015007;28;9079;-86
2023/08/07 06:01:47;;;;;;;;;;;;;;;27.36;40.94;94460.88;5020590;28;7270;-86
2023/08/07 06:04:14;;;;;;;;;;;;;;;27.38;41.04;94465.88;5008137;28;8914;-86
2023/08/07 06:06:40;;;;;;;;;;;;;;;27.35;41.16;94466.88;5019257;28;8703;-86
2023/08/07 06:09:06;;;;;;;;;;;;;;;27.34;40.31;94466.13;5019987;28;8980;-86
2023/08/07 06:11:33;;;;;;;;;;;;;;;27.33;40.51;94464.66;5003669;28;8764;-86
2023/08/07 06:14:00;;;;;;;;;;;;;;;27.34;40.48;94470.94;5006207;28;6990;-86
2023/08/07 06:16:27;;;;;;;;;;;;;;;27.39;40.44;94479.16;5006728;28;9163;-86
2023/08/07 06:18:54;;;;;;;;;;;;;;;27.34;40.56;94470.94;5006398;28;8692;-86
2023/08/07 06:21:22;;;;;;;;;;;;;;;27.36;40.87;94473.94;4999528;28;9009;-86
2023/08/07 06:23:48;;;;;;;;;;;;;;;27.38;40.28;94480.44;5018994;28;6877;-85
2023/08/07 06:26:14;;;;;;;;;;;;;;;27.39;40.20;94478.41;5015795;28;7559;-85
2023/08/07 06:28:41;;;;;;;;;;;;;;;27.39;40.13;94479.16;5001430;28;9003;-85
2023/08/07 06:31:10;;;;;;;;;;;;;;;27.36;40.42;94474.69;5019830;28;8923;-85
2023/08/07 06:33:37;;;;;;;;;;;;;;;27.35;40.13;94467.69;5020925;28;7020;-85
2023/08/07 06:36:04;;;;;;;;;;;;;;;27.39;40.48;94478.41;5025368;28;8672;-85
2023/08/07 06:38:30;;;;;;;;;;;;;;;27.40;40.50;94480.69;5005246;28;7472;-85
2023/08/07 06:40:57;;;;;;;;;;;;;;;27.37;40.69;94469.91;5010337;28;7357;-85
2023/08/07 06:43:23;;;;;;;;;;;;;;;27.40;40.76;94477.91;5023437;28;8567;-85
2023/08/07 06:45:54;;;;;;;;;;;;;;;27.36;40.68;94480.19;5025215;28;9116;-84
2023/08/07 06:48:20;;;;;;;;;;;;;;;27.36;40.94;94477.44;5022675;28;9372;-84
2023/08/07 06:50:49;;;;;;;;;;;;;;;27.37;40.59;94481.72;5026640;28;9202;-85
2023/08/07 06:53:15;;;;;;;;;;;;;;;27.32;40.59;94476.22;5005965;28;8919;-85
2023/08/07 06:55:42;;;;;;;;;;;;;;;27.40;40.73;94490.97;5018512;28;8818;-86
2023/08/07 06:58:09;;;;;;;;;;;;;;;27.37;40.39;94492.75;5003667;28;8073;-86
2023/08/07 07:00:36;;;;;;;;;;;;;;;27.39;40.63;94492.22;5023904;28;8810;-86
2023/08/07 07:03:03;;;;;;;;;;;;;;;27.39;40.44;94497.75;5023881;28;6977;-86
2023/08/07 07:05:31;;;;;;;;;;;;;;;27.40;40.11;94496.50;5010509;28;7355;-86
2023/08/07 07:07:58;;;;;;;;;;;;;;;27.37;40.14;94498.28;5020767;28;8944;-86
2023/08/07 07:10:24;;;;;;;;;;;;;;;27.38;40.70;94490.75;5026444;28;8679;-85
2023/08/07 07:12:51;;;;;;;;;;;;;;;27.40;40.35;94491.72;5024226;28;9035;-85
2023/08/07 07:15:18;;;;;;;;;;;;;;;27.44;40.52;94499.72;5025655;28;9043;-85
2023/08/07 07:17:46;;;;;;;;;;;;;;;27.38;40.71;94499.75;5008513;28;8866;-85
2023/08/07 07:20:12;;;;;;;;;;;;;;;27.38;40.47;94499.75;5010235;28;7032;-85
2023/08/07 07:22:38;;;;;;;;;;;;;;;27.39;40.69;94498.50;5008746;28;8503;-86
2023/08/07 07:25:05;;;;;;;;;;;;;;;27.42;40.48;94510.53;5020579;28;6895;-85
2023/08/07 07:27:36;;;;;;;;;;;;;;;27.41;40.51;94509.03;5008084;28;7058;-85
2023/08/07 07:30:07;;;;;;;;;;;;;;;27.39;41.02;94512.31;5022892;28;8745;-85
2023/08/07 07:32:33;;;;;;;;;;;;;;;27.34;41.10;94515.13;5022027;28;7312;-84
2023/08/07 07:34:59;;;;;;;;;;;;;;;27.41;40.99;94517.31;5001687;28;8955;-84
2023/08/07 07:37:26;;;;;;;;;;;;;;;27.39;40.89;94522.63;5006676;28;9054;-84
2023/08/07 07:39:53;;;;;;;;;;;;;;;27.38;41.08;94521.13;5021443;28;9289;-84
2023/08/07 07:42:24;;;;;;;;;;;;;;;27.36;41.23;94523.66;5017622;28;6993;-84
2023/08/07 07:44:50;;;;;;;;;;;;;;;27.35;41.24;94520.16;5007886;28;7430;-85
2023/08/07 07:47:16;;;;;;;;;;;;;;;27.29;40.96;94519.44;5009876;28;9280;-85
2023/08/07 07:49:48;;;;;;;;;;;;;;;27.29;40.95;94524.97;5026027;28;8743;-84
2023/08/07 07:52:14;;;;;;;;;;;;;;;27.31;41.22;94536.25;5022277;28;7245;-84
2023/08/07 07:54:40;;;;;;;;;;;;;;;27.27;41.19;94533.03;5005952;28;8759;-84
2023/08/07 07:57:09;;;;;;;;;;;;;;;27.26;41.30;94553.63;5008422;28;8724;-85
2023/08/07 07:59:35;;;;;;;;;;;;;;;27.21;41.34;94540.59;5015234;28;7348;-84
2023/08/07 08:02:05;;;;;;;;;;;;;;;27.23;41.32;94538.06;5013275;28;8754;-85
2023/08/07 08:04:35;;;;;;;;;;;;;;;27.23;41.33;94538.06;5025010;28;9022;-85
2023/08/07 08:07:01;;;;;;;;;;;;;;;27.21;40.72;94540.59;5008453;28;6979;-85
2023/08/07 08:09:28;;;;;;;;;;;;;;;27.26;40.55;94547.34;5003282;28;6998;-85
2023/08/07 08:11:54;;;;;;;;;;;;;;;27.26;41.23;94553.63;5018421;28;9008;-85
2023/08/07 08:14:21;;;;;;;;;;;;;;;27.24;40.69;94544.34;5006630;28;8362;-85
2023/08/07 08:16:47;;;;;;;;;;;;;;;27.18;41.00;94544.41;5011036;28;8796;-84
2023/08/07 08:19:13;;;;;;;;;;;;;;;27.21;40.73;94554.41;5027718;28;8266;-85
2023/08/07 08:21:42;;;;;;;;;;;;;;;27.24;41.02;94556.16;5025834;28;10010;-84
2023/08/07 08:24:08;;;;;;;;;;;;;;;27.20;41.11;94557.69;5022155;28;8761;-84
2023/08/07 08:26:34;;;;;;;;;;;;;;;27.21;40.86;94557.16;5007563;28;8733;-85
2023/08/07 08:29:04;;;;;;;;;;;;;;;27.23;40.94;94556.66;5010712;28;8878;-85
2023/08/07 08:31:31;;;;;;;;;;;;;;;27.26;41.10;94564.66;5008433;28;7139;-84
2023/08/07 08:33:57;;;;;;;;;;;;;;;27.20;40.71;94555.69;5005175;28;8810;-85
2023/08/07 08:36:23;;;;;;;;;;;;;;;27.23;40.54;94562.91;5006176;28;6869;-84
2023/08/07 08:38:51;;;;;;;;;;;;;;;27.19;41.09;94559.69;5022985;28;8563;-85
2023/08/07 08:41:19;;;;;;;;;;;;;;;27.22;41.02;94555.16;5006775;28;8718;-85
2023/08/07 08:43:49;;;;;;;;;;;;;;;27.25;41.00;94579.72;5001218;28;9061;-85
2023/08/07 08:46:18;;;;;;;;;;;;;;;27.18;40.76;94563.00;5026933;28;8748;-84
2023/08/07 08:48:51;;;;;;;;;;;;;;;27.15;40.89;94564.78;5005041;28;9004;-85
2023/08/07 08:51:21;;;;;;;;;;;;;;;27.17;40.71;94570.53;5023780;28;9044;-84
2023/08/07 08:53:50;;;;;;;;;;;;;;;27.23;41.09;94579.50;5001403;28;8807;-85
2023/08/07 08:56:17;;;;;;;;;;;;;;;27.20;40.74;94572.25;5008065;28;7073;-85
2023/08/07 08:58:59;;;;;;;;;;;;;;;27.23;41.07;94579.50;5002890;28;8874;-86
2023/08/07 09:01:35;;;;;;;;;;;;;;;27.23;41.15;94582.25;5007451;28;7127;-84
2023/08/07 09:04:04;;;;;;;;;;;;;;;27.24;40.75;94580.25;5011744;28;9046;-84
2023/08/07 09:06:32;;;;;;;;;;;;;;;27.18;40.98;94580.31;5015148;28;9110;-85
2023/08/07 09:09:03;;;;;;;;;;;;;;;27.22;41.39;94580.78;5016488;28;7085;-85
2023/08/07 09:11:30;;;;;;;;;;;;;;;27.20;41.37;94574.25;5004509;28;9726;-85
2023/08/07 09:13:59;;;;;;;;;;;;;;;27.21;40.73;94573.75;5019544;28;7357;-85
2023/08/07 09:16:28;;;;;;;;;;;;;;;27.18;40.73;94569.28;5021678;28;8999;-84
2023/08/07 09:18:55;;;;;;;;;;;;;;;27.24;40.64;94574.72;5019503;28;8988;-85
2023/08/07 09:21:24;;;;;;;;;;;;;;;27.23;40.76;94579.50;5006113;28;8834;-85
2023/08/07 09:23:51;;;;;;;;;;;;;;;27.24;40.79;94588.53;5019024;28;9209;-85
2023/08/07 09:26:23;;;;;;;;;;;;;;;27.23;40.83;94584.28;5003969;28;7348;-85
2023/08/07 09:28:53;;;;;;;;;;;;;;;27.24;40.67;94586.53;5000457;28;9061;-86
2023/08/07 09:31:26;;;;;;;;;;;;;;;27.19;40.98;94584.56;5003801;28;8681;-85
2023/08/07 09:34:02;;;;;;;;;;;;;;;27.21;40.64;94582.03;5021757;28;6874;-85
2023/08/07 09:36:34;;;;;;;;;;;;;;;27.24;40.60;94586.53;5022441;28;9143;-85
2023/08/07 09:39:03;;;;;;;;;;;;;;;27.22;40.42;94580.78;5019554;28;9004;-84
2023/08/07 09:41:32;;;;;;;;;;;;;;;27.23;40.36;94581.53;5017204;28;8758;-85
2023/08/07 09:44:11;;;;;;;;;;;;;;;27.21;40.78;94576.50;5017106;28;9083;-84
2023/08/07 09:46:47;;;;;;;;;;;;;;;27.27;40.73;94581.97;5020728;28;8773;-85
2023/08/07 09:49:15;;;;;;;;;;;;;;;27.25;40.51;94579.72;5005687;28;8828;-84
2023/08/07 09:51:50;;;;;;;;;;;;;;;27.30;40.59;94578.16;5009750;28;9129;-84
2023/08/07 09:54:20;;;;;;;;;;;;;;;27.32;40.91;94584.69;5016569;28;9098;-85
2023/08/07 09:56:47;;;;;;;;;;;;;;;27.33;40.82;94580.66;5022028;28;9100;-84
2023/08/07 09:59:19;;;;;;;;;;;;;;;27.35;40.43;94580.13;5003393;28;8712;-85
2023/08/07 10:01:45;;;;;;;;;;;;;;;27.38;40.16;94573.63;5009609;28;7230;-84
2023/08/07 10:04:15;;;;;;;;;;;;;;;27.40;40.84;94565.56;5007371;28;9263;-85
2023/08/07 10:06:43;;;;;;;;;;;;;;;27.40;40.01;94566.31;5021424;28;7303;-85
2023/08/07 10:09:10;;;;;;;;;;;;;;;27.36;40.49;94573.38;5024963;28;7197;-85
2023/08/07 10:11:38;;;;;;;;;;;;;;;27.41;40.39;94572.56;5012577;28;8994;-84
2023/08/07 10:14:05;;;;;;;;;;;;;;;27.43;40.20;94567.25;5025570;28;9186;-84
2023/08/07 10:16:32;;;;;;;;;;;;;;;27.42;39.84;94574.06;5026069;28;9131;-85
2023/08/07 10:18:58;;;;;;;;;;;;;;;27.43;40.40;94579.06;5026600;28;9172;-85
2023/08/07 10:21:24;;;;;;;;;;;;;;;27.45;40.35;94581.31;5007424;28;8576;-85
2023/08/07 10:23:56;;;;;;;;;;;;;;;27.51;40.63;94582.75;5002712;28;8842;-84
2023/08/07 10:26:24;;;;;;;;;;;;;;;27.52;40.52;94580.72;5010836;28;8696;-84
2023/08/07 10:28:55;;;;;;;;;;;;;;;27.52;40.62;94566.91;5025002;28;8772;-85
2023/08/07 10:31:25;;;;;;;;;;;;;;;27.52;40.29;94570.44;5010264;28;9121;-84
2023/08/07 10:33:58;;;;;;;;;;;;;;;27.52;40.29;94575.97;5027549;28;8825;-84
2023/08/07 10:36:32;;;;;;;;;;;;;;;27.49;40.54;94571.47;5024823;28;7437;-84
2023/08/07 10:39:15;;;;;;;;;;;;;;;27.49;40.40;94568.69;5011339;28;9101;-87
2023/08/07 10:41:56;;;;;;;;;;;;;;;27.52;40.59;94577.97;5014508;28;9164;-86
2023/08/07 10:44:36;;;;;;;;;;;;;;;27.53;40.37;94569.16;5026681;28;9187;-87
2023/08/07 10:47:02;;;;;;;;;;;;;;;27.48;40.17;94563.69;5028245;28;6996;-86
2023/08/07 10:49:36;;;;;;;;;;;;;;;27.54;40.29;94592.75;5005996;28;7001;-87
2023/08/07 10:52:14;;;;;;;;;;;;;;;27.54;40.22;94587.25;5020752;28;8817;-87
2023/08/07 10:54:46;;;;;;;;;;;;;;;27.52;40.88;94581.50;5012871;28;9076;-87
2023/08/07 10:57:21;;;;;;;;;;;;;;;27.50;40.59;94586.78;5007825;28;8752;-86
2023/08/07 11:00:01;;;;;;;;;;;;;;;27.51;40.40;94588.25;5004493;28;9349;-87
2023/08/07 11:02:30;;;;;;;;;;;;;;;27.51;40.53;94590.31;5029383;28;8999;-87
2023/08/07 11:04:57;;;;;;;;;;;;;;;27.49;40.72;94590.06;5020410;28;8713;-87
2023/08/07 11:07:29;;;;;;;;;;;;;;;27.48;40.40;94586.56;5023249;28;7319;-87
2023/08/07 11:10:02;;;;;;;;;;;;;;;27.49;40.50;94592.84;5005871;28;7565;-87
2023/08/07 11:12:31;;;;;;;;;;;;;;;27.47;40.55;94585.03;5009178;28;8913;-87
2023/08/07 11:14:59;;;;;;;;;;;;;;;27.47;41.00;94584.31;5020662;28;7239;-87
2023/08/07 11:17:27;;;;;;;;;;;;;;;27.43;40.92;94573.53;5008131;28;7269;-87
2023/08/07 11:19:56;;;;;;;;;;;;;;;27.48;40.88;94591.31;5009100;28;8817;-87
2023/08/07 11:22:25;;;;;;;;;;;;;;;27.48;40.70;94597.59;5006828;28;9417;-86
2023/08/07 11:24:54;;;;;;;;;;;;;;;27.48;40.84;94591.31;5024395;28;8795;-87
2023/08/07 11:27:25;;;;;;;;;;;;;;;27.49;40.78;94593.56;5012723;28;9195;-87
2023/08/07 11:29:53;;;;;;;;;;;;;;;27.43;40.73;94579.06;5021584;28;7243;-86
2023/08/07 11:32:21;;;;;;;;;;;;;;;27.50;40.46;94597.09;5005516;28;8789;-87
2023/08/07 11:34:52;;;;;;;;;;;;;;;27.48;40.38;94594.84;5007400;28;9024;-86
2023/08/07 11:37:21;;;;;;;;;;;;;;;27.50;40.62;94600.59;5028351;28;9070;-86
2023/08/07 11:39:48;;;;;;;;;;;;;;;27.52;40.93;94603.59;5021404;28;9186;-87
2023/08/07 11:42:21;;;;;;;;;;;;;;;27.52;40.90;94603.59;5007337;28;8998;-86
2023/08/07 11:44:52;;;;;;;;;;;;;;;27.48;40.65;94594.84;5007273;28;9035;-86
2023/08/07 11:47:18;;;;;;;;;;;;;;;27.51;41.09;94599.31;5021152;28;9045;-85
2023/08/07 11:49:52;;;;;;;;;;;;;;;27.53;40.67;94599.53;5001617;28;8744;-85
2023/08/07 11:52:23;;;;;;;;;;;;;;;27.51;40.61;94596.56;5020064;28;9294;-85
2023/08/07 11:54:49;;;;;;;;;;;;;;;27.50;41.00;94600.59;5025923;28;9546;-85
2023/08/07 11:57:20;;;;;;;;;;;;;;;27.45;41.47;94595.88;5023869;28;7235;-85
2023/08/07 11:59:56;;;;;;;;;;;;;;;27.50;41.35;94594.31;5010329;28;7162;-85
2023/08/07 12:02:28;;;;;;;;;;;;;;;27.49;41.25;94599.09;5002065;28;9023;-85
2023/08/07 12:04:58;;;;;;;;;;;;;;;27.47;41.08;94601.63;5007987;28;7334;-85
2023/08/07 12:07:26;;;;;;;;;;;;;;;27.41;41.39;94609.22;5004265;28;7324;-85
2023/08/07 12:09:54;;;;;;;;;;;;;;;27.39;40.98;94624.81;5025136;28;7575;-85
2023/08/07 12:12:22;;;;;;;;;;;;;;;27.42;41.49;94635.59;5009398;28;9033;-85
2023/08/07 12:14:53;;;;;;;;;;;;;;;27.42;41.62;94621.78;5019860;28;9084;-85
2023/08/07 12:17:21;;;;;;;;;;;;;;;27.47;41.10;94614.72;5025847;28;9011;-85
2023/08/07 12:19:50;;;;;;;;;;;;;;;27.42;41.59;94607.22;5007632;28;9062;-85
2023/08/07 12:22:20;;;;;;;;;;;;;;;27.50;41.23;94611.66;5024244;28;9010;-85
2023/08/07 12:24:50;;;;;;;;;;;;;;;27.52;41.33;94602.84;5006543;28;9033;-85
2023/08/07 12:27:19;;;;;;;;;;;;;;;27.52;41.56;94611.88;5025059;28;9031;-85
2023/08/07 12:29:46;;;;;;;;;;;;;;;27.51;41.24;94610.38;5023400;28;9044;-85
2023/08/07 12:32:12;;;;;;;;;;;;;;;27.51;41.10;94604.84;5028382;28;9195;-85
2023/08/07 12:34:41;;;;;;;;;;;;;;;27.56;41.45;94609.56;5026390;28;7255;-85
2023/08/07 12:37:08;;;;;;;;;;;;;;;27.57;41.30;94610.31;5022983;28;8714;-85
2023/08/07 12:39:35;;;;;;;;;;;;;;;27.53;41.67;94596.78;5023016;28;9153;-85
2023/08/07 12:42:05;;;;;;;;;;;;;;;27.59;41.51;94607.78;5013020;28;9165;-85
2023/08/07 12:44:35;;;;;;;;;;;;;;;27.59;41.54;94603.00;5006981;28;8641;-85
2023/08/07 12:47:06;;;;;;;;;;;;;;;27.55;42.06;94602.56;5008721;28;9039;-85
2023/08/07 12:49:34;;;;;;;;;;;;;;;27.55;41.02;94596.28;5018937;28;9003;-85
2023/08/07 12:52:00;;;;;;;;;;;;;;;27.55;41.78;94599.03;5023593;28;8720;-85
2023/08/07 12:54:28;;;;;;;;;;;;;;;27.55;41.30;94613.63;5020299;28;6996;-85
2023/08/07 12:56:57;;;;;;;;;;;;;;;27.54;41.39;94606.59;5008219;28;7572;-86
2023/08/07 12:59:25;;;;;;;;;;;;;;;27.58;41.17;94618.09;5023664;28;8681;-85
2023/08/07 13:01:53;;;;;;;;;;;;;;;27.57;41.57;94616.59;5022723;28;8870;-85
2023/08/07 13:04:22;;;;;;;;;;;;;;;27.50;41.92;94616.41;5023202;28;9045;-85